sensor_id;sensor_type;location;lat;lon;timestamp;temperature;humidity
10249;DHT22;5169;50.560;9.714;2023-12-04T00:00:16;-1.20;99.90
10249;DHT22;5169;50.560;9.714;2023-12-04T00:02:44;-1.30;99.90
10249;DHT22;5169;50.560;9.714;2023-12-04T00:05:12;-1.30;99.90
10249;DHT22;5169;50.560;9.714;2023-12-04T00:07:37;-1.20;99.90
10249;DHT22;5169;50.560;9.714;2023-12-04T00:10:03;-1.30;99.90
10249;DHT22;5169;50.560;9.714;2023-12-04T00:12:29;-1.20;99.90
10249;DHT22;5169;50.560;9.714;2023-12-04T00:14:55;-1.30;99.90
10249;DHT22;5169;50.560;9.714;2023-12-04T00:17:22;-1.40;99.90
10249;DHT22;5169;50.560;9.714;2023-12-04T00:19:48;-1.50;99.90
10249;DHT22;5169;50.560;9.714;2023-12-04T00:22:13;-1.60;99.90
10249;DHT22;5169;50.560;9.714;2023-12-04T00:24:39;-1.70;99.90
10249;DHT22;5169;50.560;9.714;2023-12-04T00:27:04;-1.80;99.90
10249;DHT22;5169;50.560;9.714;2023-12-04T00:29:30;-1.80;99.90
10249;DHT22;5169;50.560;9.714;2023-12-04T00:31:58;-1.90;99.90
10249;DHT22;5169;50.560;9.714;2023-12-04T00:34:24;-1.90;99.90
10249;DHT22;5169;50.560;9.714;2023-12-04T00:36:49;-1.90;99.90
10249;DHT22;5169;50.560;9.714;2023-12-04T00:39:16;-1.90;99.90
10249;DHT22;5169;50.560;9.714;2023-12-04T00:41:41;-1.90;99.90
10249;DHT22;5169;50.560;9.714;2023-12-04T00:44:07;-2.00;99.90
10249;DHT22;5169;50.560;9.714;2023-12-04T00:46:32;-2.00;99.90
10249;DHT22;5169;50.560;9.714;2023-12-04T00:49:00;-2.00;99.90
10249;DHT22;5169;50.560;9.714;2023-12-04T00:51:28;-2.20;99.90
10249;DHT22;5169;50.560;9.714;2023-12-04T00:53:55;-2.30;99.90
10249;DHT22;5169;50.560;9.714;2023-12-04T00:56:26;-2.30;99.90
10249;DHT22;5169;50.560;9.714;2023-12-04T00:58:52;-2.30;99.90
10249;DHT22;5169;50.560;9.714;2023-12-04T01:01:20;-2.30;99.90
10249;DHT22;5169;50.560;9.714;2023-12-04T01:03:45;-2.30;99.90
10249;DHT22;5169;50.560;9.714;2023-12-04T01:06:20;-2.40;99.90
10249;DHT22;5169;50.560;9.714;2023-12-04T01:08:47;-2.50;99.90
10249;DHT22;5169;50.560;9.714;2023-12-04T01:11:16;-2.40;99.90
10249;DHT22;5169;50.560;9.714;2023-12-04T01:13:42;-2.40;99.90
10249;DHT22;5169;50.560;9.714;2023-12-04T01:16:08;-2.50;99.90
10249;DHT22;5169;50.560;9.714;2023-12-04T01:18:35;-2.40;99.90
10249;DHT22;5169;50.560;9.714;2023-12-04T01:21:00;-2.40;99.90
10249;DHT22;5169;50.560;9.714;2023-12-04T01:23:26;-2.50;99.90
10249;DHT22;5169;50.560;9.714;2023-12-04T01:25:54;-2.40;99.90
10249;DHT22;5169;50.560;9.714;2023-12-04T01:28:22;-2.40;99.90
10249;DHT22;5169;50.560;9.714;2023-12-04T01:30:50;-2.40;99.90
10249;DHT22;5169;50.560;9.714;2023-12-04T01:33:16;-2.50;99.90
10249;DHT22;5169;50.560;9.714;2023-12-04T01:35:41;-2.40;99.90
10249;DHT22;5169;50.560;9.714;2023-12-04T01:38:07;-2.40;99.90
10249;DHT22;5169;50.560;9.714;2023-12-04T01:40:33;-2.30;99.90
10249;DHT22;5169;50.560;9.714;2023-12-04T01:42:59;-2.40;99.90
10249;DHT22;5169;50.560;9.714;2023-12-04T01:45:24;-2.50;99.90
10249;DHT22;5169;50.560;9.714;2023-12-04T01:47:50;-2.50;99.90
10249;DHT22;5169;50.560;9.714;2023-12-04T01:50:18;-2.40;99.90
10249;DHT22;5169;50.560;9.714;2023-12-04T01:52:46;-2.40;99.90
10249;DHT22;5169;50.560;9.714;2023-12-04T01:55:15;-2.40;99.90
10249;DHT22;5169;50.560;9.714;2023-12-04T01:57:41;-2.50;99.90
10249;DHT22;5169;50.560;9.714;2023-12-04T02:00:07;-2.60;99.90
10249;DHT22;5169;50.560;9.714;2023-12-04T02:02:38;-2.60;99.90
10249;DHT22;5169;50.560;9.714;2023-12-04T02:05:09;-2.60;99.90
10249;DHT22;5169;50.560;9.714;2023-12-04T02:07:36;-2.60;99.90
10249;DHT22;5169;50.560;9.714;2023-12-04T02:10:03;-2.60;99.90
10249;DHT22;5169;50.560;9.714;2023-12-04T02:12:29;-2.40;99.90
10249;DHT22;5169;50.560;9.714;2023-12-04T02:14:55;-2.30;99.90
10249;DHT22;5169;50.560;9.714;2023-12-04T02:17:27;-2.30;99.90
10249;DHT22;5169;50.560;9.714;2023-12-04T02:19:53;-2.30;99.90
10249;DHT22;5169;50.560;9.714;2023-12-04T02:22:19;-2.30;99.90
10249;DHT22;5169;50.560;9.714;2023-12-04T02:24:47;-2.30;99.90
10249;DHT22;5169;50.560;9.714;2023-12-04T02:27:25;-2.30;99.90
10249;DHT22;5169;50.560;9.714;2023-12-04T02:29:53;-2.20;99.90
10249;DHT22;5169;50.560;9.714;2023-12-04T02:32:23;-2.30;99.90
10249;DHT22;5169;50.560;9.714;2023-12-04T02:34:53;-2.40;99.90
10249;DHT22;5169;50.560;9.714;2023-12-04T02:37:22;-2.30;99.90
10249;DHT22;5169;50.560;9.714;2023-12-04T02:39:49;-2.30;99.90
10249;DHT22;5169;50.560;9.714;2023-12-04T02:42:20;-2.20;99.90
10249;DHT22;5169;50.560;9.714;2023-12-04T02:44:48;-2.30;99.90
10249;DHT22;5169;50.560;9.714;2023-12-04T02:47:15;-2.30;99.90
10249;DHT22;5169;50.560;9.714;2023-12-04T02:49:40;-2.30;99.90
10249;DHT22;5169;50.560;9.714;2023-12-04T02:52:06;-2.30;99.90
10249;DHT22;5169;50.560;9.714;2023-12-04T02:54:32;-2.30;99.90
10249;DHT22;5169;50.560;9.714;2023-12-04T02:56:57;-2.30;99.90
10249;DHT22;5169;50.560;9.714;2023-12-04T02:59:25;-2.30;99.90
10249;DHT22;5169;50.560;9.714;2023-12-04T03:01:51;-2.10;99.90
10249;DHT22;5169;50.560;9.714;2023-12-04T03:04:16;-2.00;99.90
10249;DHT22;5169;50.560;9.714;2023-12-04T03:06:42;-2.00;99.90
10249;DHT22;5169;50.560;9.714;2023-12-04T03:09:07;-1.90;99.90
10249;DHT22;5169;50.560;9.714;2023-12-04T03:11:33;-2.00;99.90
10249;DHT22;5169;50.560;9.714;2023-12-04T03:14:03;-2.00;99.90
10249;DHT22;5169;50.560;9.714;2023-12-04T03:16:29;-2.00;99.90
10249;DHT22;5169;50.560;9.714;2023-12-04T03:18:59;-2.20;99.90
10249;DHT22;5169;50.560;9.714;2023-12-04T03:21:25;-2.30;99.90
10249;DHT22;5169;50.560;9.714;2023-12-04T03:23:50;-2.30;99.90
10249;DHT22;5169;50.560;9.714;2023-12-04T03:26:16;-2.30;99.90
10249;DHT22;5169;50.560;9.714;2023-12-04T03:28:42;-2.30;99.90
10249;DHT22;5169;50.560;9.714;2023-12-04T03:31:08;-2.30;99.90
10249;DHT22;5169;50.560;9.714;2023-12-04T03:33:33;-2.40;99.90
10249;DHT22;5169;50.560;9.714;2023-12-04T03:36:01;-2.40;99.90
10249;DHT22;5169;50.560;9.714;2023-12-04T03:38:27;-2.30;99.90
10249;DHT22;5169;50.560;9.714;2023-12-04T03:40:55;-2.20;99.90
10249;DHT22;5169;50.560;9.714;2023-12-04T03:43:21;-2.10;99.90
10249;DHT22;5169;50.560;9.714;2023-12-04T03:45:46;-2.10;99.90
10249;DHT22;5169;50.560;9.714;2023-12-04T03:48:12;-2.10;99.90
10249;DHT22;5169;50.560;9.714;2023-12-04T03:50:40;-2.20;99.90
10249;DHT22;5169;50.560;9.714;2023-12-04T03:53:05;-2.20;99.90
10249;DHT22;5169;50.560;9.714;2023-12-04T03:55:31;-2.20;99.90
10249;DHT22;5169;50.560;9.714;2023-12-04T03:58:01;-2.20;99.90
10249;DHT22;5169;50.560;9.714;2023-12-04T04:00:26;-2.20;99.90
10249;DHT22;5169;50.560;9.714;2023-12-04T04:02:52;-2.00;99.90
10249;DHT22;5169;50.560;9.714;2023-12-04T04:05:20;-2.00;99.90
10249;DHT22;5169;50.560;9.714;2023-12-04T04:07:46;-2.00;99.90
10249;DHT22;5169;50.560;9.714;2023-12-04T04:10:13;-2.00;99.90
10249;DHT22;5169;50.560;9.714;2023-12-04T04:12:39;-1.90;99.90
10249;DHT22;5169;50.560;9.714;2023-12-04T04:15:07;-1.80;99.90
10249;DHT22;5169;50.560;9.714;2023-12-04T04:17:33;-1.60;99.90
10249;DHT22;5169;50.560;9.714;2023-12-04T04:19:59;-1.70;99.90
10249;DHT22;5169;50.560;9.714;2023-12-04T04:22:26;-1.70;99.90
10249;DHT22;5169;50.560;9.714;2023-12-04T04:24:55;-1.80;99.90
10249;DHT22;5169;50.560;9.714;2023-12-04T04:27:21;-1.80;99.90
10249;DHT22;5169;50.560;9.714;2023-12-04T04:29:47;-1.70;99.90
10249;DHT22;5169;50.560;9.714;2023-12-04T04:32:12;-1.70;99.90
10249;DHT22;5169;50.560;9.714;2023-12-04T04:34:38;-1.70;99.90
10249;DHT22;5169;50.560;9.714;2023-12-04T04:37:04;-1.70;99.90
10249;DHT22;5169;50.560;9.714;2023-12-04T04:39:29;-1.70;99.90
10249;DHT22;5169;50.560;9.714;2023-12-04T04:41:55;-1.60;99.90
10249;DHT22;5169;50.560;9.714;2023-12-04T04:44:23;-1.70;99.90
10249;DHT22;5169;50.560;9.714;2023-12-04T04:46:48;-1.60;99.90
10249;DHT22;5169;50.560;9.714;2023-12-04T04:49:14;-1.60;99.90
10249;DHT22;5169;50.560;9.714;2023-12-04T04:51:42;-1.60;99.90
10249;DHT22;5169;50.560;9.714;2023-12-04T04:54:10;-1.60;99.90
10249;DHT22;5169;50.560;9.714;2023-12-04T04:56:36;-1.60;99.90
10249;DHT22;5169;50.560;9.714;2023-12-04T04:59:01;-1.50;99.90
10249;DHT22;5169;50.560;9.714;2023-12-04T05:01:29;-1.70;99.90
10249;DHT22;5169;50.560;9.714;2023-12-04T05:03:54;-1.60;99.90
10249;DHT22;5169;50.560;9.714;2023-12-04T05:06:20;-1.70;99.90
10249;DHT22;5169;50.560;9.714;2023-12-04T05:08:48;-1.70;99.90
10249;DHT22;5169;50.560;9.714;2023-12-04T05:11:16;-1.70;99.90
10249;DHT22;5169;50.560;9.714;2023-12-04T05:13:42;-1.60;99.90
10249;DHT22;5169;50.560;9.714;2023-12-04T05:16:08;-1.60;99.90
10249;DHT22;5169;50.560;9.714;2023-12-04T05:18:34;-1.50;99.90
10249;DHT22;5169;50.560;9.714;2023-12-04T05:20:59;-1.60;99.90
10249;DHT22;5169;50.560;9.714;2023-12-04T05:23:28;-1.70;99.90
10249;DHT22;5169;50.560;9.714;2023-12-04T05:25:55;-1.60;99.90
10249;DHT22;5169;50.560;9.714;2023-12-04T05:28:21;-1.50;99.90
10249;DHT22;5169;50.560;9.714;2023-12-04T05:30:46;-1.60;99.90
10249;DHT22;5169;50.560;9.714;2023-12-04T05:33:14;-1.60;99.90
10249;DHT22;5169;50.560;9.714;2023-12-04T05:35:42;-1.50;99.90
10249;DHT22;5169;50.560;9.714;2023-12-04T05:38:08;-1.40;99.90
10249;DHT22;5169;50.560;9.714;2023-12-04T05:40:36;-1.40;99.90
10249;DHT22;5169;50.560;9.714;2023-12-04T05:43:04;-1.30;99.90
10249;DHT22;5169;50.560;9.714;2023-12-04T05:45:32;-1.30;99.90
10249;DHT22;5169;50.560;9.714;2023-12-04T05:48:00;-1.30;99.90
10249;DHT22;5169;50.560;9.714;2023-12-04T05:50:28;-1.30;99.90
10249;DHT22;5169;50.560;9.714;2023-12-04T05:52:53;-1.40;99.90
10249;DHT22;5169;50.560;9.714;2023-12-04T05:55:21;-1.40;99.90
10249;DHT22;5169;50.560;9.714;2023-12-04T05:57:46;-1.30;99.90
10249;DHT22;5169;50.560;9.714;2023-12-04T06:00:12;-1.40;99.90
10249;DHT22;5169;50.560;9.714;2023-12-04T06:02:42;-1.40;99.90
10249;DHT22;5169;50.560;9.714;2023-12-04T06:05:08;-1.30;99.90
10249;DHT22;5169;50.560;9.714;2023-12-04T06:07:35;-1.50;99.90
10249;DHT22;5169;50.560;9.714;2023-12-04T06:10:05;-1.50;99.90
10249;DHT22;5169;50.560;9.714;2023-12-04T06:12:31;-1.50;99.90
10249;DHT22;5169;50.560;9.714;2023-12-04T06:14:57;-1.50;99.90
10249;DHT22;5169;50.560;9.714;2023-12-04T06:17:24;-1.50;99.90
10249;DHT22;5169;50.560;9.714;2023-12-04T06:19:50;-1.50;99.90
10249;DHT22;5169;50.560;9.714;2023-12-04T06:22:15;-1.60;99.90
10249;DHT22;5169;50.560;9.714;2023-12-04T06:24:44;-1.60;99.90
10249;DHT22;5169;50.560;9.714;2023-12-04T06:27:11;-1.60;99.90
10249;DHT22;5169;50.560;9.714;2023-12-04T06:29:40;-1.60;99.90
10249;DHT22;5169;50.560;9.714;2023-12-04T06:32:06;-1.60;99.90
10249;DHT22;5169;50.560;9.714;2023-12-04T06:34:33;-1.50;99.90
10249;DHT22;5169;50.560;9.714;2023-12-04T06:36:59;-1.60;99.90
10249;DHT22;5169;50.560;9.714;2023-12-04T06:39:25;-1.60;99.90
10249;DHT22;5169;50.560;9.714;2023-12-04T06:41:56;-1.50;99.90
10249;DHT22;5169;50.560;9.714;2023-12-04T06:44:22;-1.50;99.90
10249;DHT22;5169;50.560;9.714;2023-12-04T06:46:49;-1.40;99.90
10249;DHT22;5169;50.560;9.714;2023-12-04T06:49:20;-1.50;99.90
10249;DHT22;5169;50.560;9.714;2023-12-04T06:51:48;-1.40;99.90
10249;DHT22;5169;50.560;9.714;2023-12-04T06:54:14;-1.30;99.90
10249;DHT22;5169;50.560;9.714;2023-12-04T06:56:40;-1.20;99.90
10249;DHT22;5169;50.560;9.714;2023-12-04T06:59:05;-1.30;99.90
10249;DHT22;5169;50.560;9.714;2023-12-04T07:01:31;-1.40;99.90
10249;DHT22;5169;50.560;9.714;2023-12-04T07:03:59;-1.30;99.90
10249;DHT22;5169;50.560;9.714;2023-12-04T07:06:24;-1.20;99.90
10249;DHT22;5169;50.560;9.714;2023-12-04T07:08:50;-1.20;99.90
10249;DHT22;5169;50.560;9.714;2023-12-04T07:11:18;-1.20;99.90
10249;DHT22;5169;50.560;9.714;2023-12-04T07:13:48;-1.10;99.90
10249;DHT22;5169;50.560;9.714;2023-12-04T07:16:14;-1.20;99.90
10249;DHT22;5169;50.560;9.714;2023-12-04T07:18:39;-1.10;99.90
10249;DHT22;5169;50.560;9.714;2023-12-04T07:21:05;-1.10;99.90
10249;DHT22;5169;50.560;9.714;2023-12-04T07:23:31;-1.00;99.90
10249;DHT22;5169;50.560;9.714;2023-12-04T07:25:58;-0.90;99.90
10249;DHT22;5169;50.560;9.714;2023-12-04T07:28:24;-1.00;99.90
10249;DHT22;5169;50.560;9.714;2023-12-04T07:30:54;-0.90;99.90
10249;DHT22;5169;50.560;9.714;2023-12-04T07:33:20;-0.80;99.90
10249;DHT22;5169;50.560;9.714;2023-12-04T07:35:46;-0.80;99.90
10249;DHT22;5169;50.560;9.714;2023-12-04T07:38:12;-0.80;99.90
10249;DHT22;5169;50.560;9.714;2023-12-04T07:40:37;-0.80;99.90
10249;DHT22;5169;50.560;9.714;2023-12-04T07:43:05;-0.70;99.90
10249;DHT22;5169;50.560;9.714;2023-12-04T07:45:31;-0.60;99.90
10249;DHT22;5169;50.560;9.714;2023-12-04T07:47:57;-0.60;99.90
10249;DHT22;5169;50.560;9.714;2023-12-04T07:50:27;-0.50;99.90
10249;DHT22;5169;50.560;9.714;2023-12-04T07:52:55;-0.60;99.90
10249;DHT22;5169;50.560;9.714;2023-12-04T07:55:20;-0.60;99.90
10249;DHT22;5169;50.560;9.714;2023-12-04T07:57:46;-0.60;99.90
10249;DHT22;5169;50.560;9.714;2023-12-04T08:00:13;-0.70;99.90
10249;DHT22;5169;50.560;9.714;2023-12-04T08:02:39;-0.70;99.90
10249;DHT22;5169;50.560;9.714;2023-12-04T08:05:05;-0.70;99.90
10249;DHT22;5169;50.560;9.714;2023-12-04T08:07:36;-0.70;99.90
10249;DHT22;5169;50.560;9.714;2023-12-04T08:10:01;-0.70;99.90
10249;DHT22;5169;50.560;9.714;2023-12-04T08:12:27;-0.70;99.90
10249;DHT22;5169;50.560;9.714;2023-12-04T08:14:53;-0.60;99.90
10249;DHT22;5169;50.560;9.714;2023-12-04T08:17:18;-0.60;99.90
10249;DHT22;5169;50.560;9.714;2023-12-04T08:19:44;-0.60;99.90
10249;DHT22;5169;50.560;9.714;2023-12-04T08:22:10;-0.70;99.90
10249;DHT22;5169;50.560;9.714;2023-12-04T08:24:38;-0.60;99.90
10249;DHT22;5169;50.560;9.714;2023-12-04T08:27:03;-0.60;99.90
10249;DHT22;5169;50.560;9.714;2023-12-04T08:29:29;-0.60;99.90
10249;DHT22;5169;50.560;9.714;2023-12-04T08:31:54;-0.50;99.90
10249;DHT22;5169;50.560;9.714;2023-12-04T08:34:20;-0.50;99.90
10249;DHT22;5169;50.560;9.714;2023-12-04T08:36:46;-0.40;99.90
10249;DHT22;5169;50.560;9.714;2023-12-04T08:39:11;-0.40;99.90
10249;DHT22;5169;50.560;9.714;2023-12-04T08:41:37;-0.40;99.90
10249;DHT22;5169;50.560;9.714;2023-12-04T08:44:07;-0.30;99.90
10249;DHT22;5169;50.560;9.714;2023-12-04T08:46:33;-0.20;99.90
10249;DHT22;5169;50.560;9.714;2023-12-04T08:48:58;-0.20;99.90
10249;DHT22;5169;50.560;9.714;2023-12-04T08:51:24;-0.30;99.90
10249;DHT22;5169;50.560;9.714;2023-12-04T08:53:51;-0.20;99.90
10249;DHT22;5169;50.560;9.714;2023-12-04T08:56:17;-0.20;99.90
10249;DHT22;5169;50.560;9.714;2023-12-04T08:58:43;-0.10;99.90
10249;DHT22;5169;50.560;9.714;2023-12-04T09:01:11;-0.10;99.90
10249;DHT22;5169;50.560;9.714;2023-12-04T09:03:36;0.10;99.90
10249;DHT22;5169;50.560;9.714;2023-12-04T09:06:02;0.40;99.90
10249;DHT22;5169;50.560;9.714;2023-12-04T09:08:28;0.50;99.90
10249;DHT22;5169;50.560;9.714;2023-12-04T09:10:53;0.80;99.90
10249;DHT22;5169;50.560;9.714;2023-12-04T09:13:21;1.00;99.90
10249;DHT22;5169;50.560;9.714;2023-12-04T09:15:49;1.40;99.90
10249;DHT22;5169;50.560;9.714;2023-12-04T09:18:17;2.10;99.90
10249;DHT22;5169;50.560;9.714;2023-12-04T09:20:48;2.30;99.90
10249;DHT22;5169;50.560;9.714;2023-12-04T09:23:13;2.90;99.90
10249;DHT22;5169;50.560;9.714;2023-12-04T09:25:39;3.00;99.90
10249;DHT22;5169;50.560;9.714;2023-12-04T09:28:04;2.90;99.90
10249;DHT22;5169;50.560;9.714;2023-12-04T09:30:30;2.60;99.90
10249;DHT22;5169;50.560;9.714;2023-12-04T09:32:55;2.40;99.90
10249;DHT22;5169;50.560;9.714;2023-12-04T09:35:21;2.10;99.90
10249;DHT22;5169;50.560;9.714;2023-12-04T09:37:49;1.80;99.90
10249;DHT22;5169;50.560;9.714;2023-12-04T09:40:16;1.50;99.90
10249;DHT22;5169;50.560;9.714;2023-12-04T09:42:42;1.30;99.90
10249;DHT22;5169;50.560;9.714;2023-12-04T09:45:12;1.20;99.90
10249;DHT22;5169;50.560;9.714;2023-12-04T09:47:39;1.10;99.90
10249;DHT22;5169;50.560;9.714;2023-12-04T09:50:05;1.10;99.90
10249;DHT22;5169;50.560;9.714;2023-12-04T09:52:31;1.00;99.90
10249;DHT22;5169;50.560;9.714;2023-12-04T09:54:59;1.00;99.90
10249;DHT22;5169;50.560;9.714;2023-12-04T09:57:28;1.00;99.90
10249;DHT22;5169;50.560;9.714;2023-12-04T09:59:54;0.90;99.90
10249;DHT22;5169;50.560;9.714;2023-12-04T10:02:23;0.90;99.90
10249;DHT22;5169;50.560;9.714;2023-12-04T10:04:52;1.00;99.90
10249;DHT22;5169;50.560;9.714;2023-12-04T10:07:22;1.20;99.90
10249;DHT22;5169;50.560;9.714;2023-12-04T10:09:48;1.30;99.90
10249;DHT22;5169;50.560;9.714;2023-12-04T10:12:13;1.30;99.90
10249;DHT22;5169;50.560;9.714;2023-12-04T10:14:43;1.30;99.90
10249;DHT22;5169;50.560;9.714;2023-12-04T10:17:15;1.50;99.90
10249;DHT22;5169;50.560;9.714;2023-12-04T10:19:43;1.50;99.90
10249;DHT22;5169;50.560;9.714;2023-12-04T10:22:08;1.50;99.90
10249;DHT22;5169;50.560;9.714;2023-12-04T10:24:38;1.50;99.90
10249;DHT22;5169;50.560;9.714;2023-12-04T10:27:08;1.60;99.90
10249;DHT22;5169;50.560;9.714;2023-12-04T10:29:48;1.60;99.90
10249;DHT22;5169;50.560;9.714;2023-12-04T10:32:20;1.60;99.90
10249;DHT22;5169;50.560;9.714;2023-12-04T10:34:47;1.70;99.90
10249;DHT22;5169;50.560;9.714;2023-12-04T10:37:15;1.80;99.90
10249;DHT22;5169;50.560;9.714;2023-12-04T10:39:49;1.90;99.90
10249;DHT22;5169;50.560;9.714;2023-12-04T10:42:28;1.90;99.90
10249;DHT22;5169;50.560;9.714;2023-12-04T10:44:56;2.10;99.90
10249;DHT22;5169;50.560;9.714;2023-12-04T10:47:26;2.10;99.90
10249;DHT22;5169;50.560;9.714;2023-12-04T10:49:54;2.20;99.90
10249;DHT22;5169;50.560;9.714;2023-12-04T10:52:20;2.20;99.90
10249;DHT22;5169;50.560;9.714;2023-12-04T10:54:50;2.30;99.90
10249;DHT22;5169;50.560;9.714;2023-12-04T10:57:27;2.30;99.90
10249;DHT22;5169;50.560;9.714;2023-12-04T10:59:58;2.20;99.90
10249;DHT22;5169;50.560;9.714;2023-12-04T11:02:29;2.20;99.90
10249;DHT22;5169;50.560;9.714;2023-12-04T11:05:18;2.10;99.90
10249;DHT22;5169;50.560;9.714;2023-12-04T11:08:11;2.10;99.90
10249;DHT22;5169;50.560;9.714;2023-12-04T11:10:52;2.00;99.90
10249;DHT22;5169;50.560;9.714;2023-12-04T11:13:35;1.90;99.90
10249;DHT22;5169;50.560;9.714;2023-12-04T11:16:18;1.80;99.90
10249;DHT22;5169;50.560;9.714;2023-12-04T11:18:51;1.80;99.90
10249;DHT22;5169;50.560;9.714;2023-12-04T11:21:22;1.90;99.90
10249;DHT22;5169;50.560;9.714;2023-12-04T11:23:49;2.00;99.90
10249;DHT22;5169;50.560;9.714;2023-12-04T11:26:24;2.10;99.90
10249;DHT22;5169;50.560;9.714;2023-12-04T11:28:51;1.90;99.90
10249;DHT22;5169;50.560;9.714;2023-12-04T11:31:19;1.90;99.90
10249;DHT22;5169;50.560;9.714;2023-12-04T11:33:47;2.00;99.90
10249;DHT22;5169;50.560;9.714;2023-12-04T11:36:15;2.00;99.90
10249;DHT22;5169;50.560;9.714;2023-12-04T11:38:48;2.00;99.90
10249;DHT22;5169;50.560;9.714;2023-12-04T11:41:21;2.10;99.90
10249;DHT22;5169;50.560;9.714;2023-12-04T11:43:47;2.00;99.90
10249;DHT22;5169;50.560;9.714;2023-12-04T11:46:23;2.20;99.90
10249;DHT22;5169;50.560;9.714;2023-12-04T11:48:54;2.20;99.90
10249;DHT22;5169;50.560;9.714;2023-12-04T11:54:12;2.40;99.90
10249;DHT22;5169;50.560;9.714;2023-12-04T11:56:39;2.30;99.90
10249;DHT22;5169;50.560;9.714;2023-12-04T11:59:06;2.30;99.90
10249;DHT22;5169;50.560;9.714;2023-12-04T12:01:38;2.50;99.90
10249;DHT22;5169;50.560;9.714;2023-12-04T12:04:09;2.60;99.90
10249;DHT22;5169;50.560;9.714;2023-12-04T12:06:35;2.50;99.90
10249;DHT22;5169;50.560;9.714;2023-12-04T12:09:03;2.40;99.90
10249;DHT22;5169;50.560;9.714;2023-12-04T12:11:29;2.20;99.90
10249;DHT22;5169;50.560;9.714;2023-12-04T12:13:55;2.20;99.90
10249;DHT22;5169;50.560;9.714;2023-12-04T12:16:20;2.20;99.90
10249;DHT22;5169;50.560;9.714;2023-12-04T12:18:46;2.10;99.90
10249;DHT22;5169;50.560;9.714;2023-12-04T12:21:12;2.10;99.90
10249;DHT22;5169;50.560;9.714;2023-12-04T12:23:38;2.00;99.90
10249;DHT22;5169;50.560;9.714;2023-12-04T12:26:04;2.00;99.90
10249;DHT22;5169;50.560;9.714;2023-12-04T12:28:29;1.90;99.90
10249;DHT22;5169;50.560;9.714;2023-12-04T12:31:04;1.80;99.90
10249;DHT22;5169;50.560;9.714;2023-12-04T12:33:30;1.80;99.90
10249;DHT22;5169;50.560;9.714;2023-12-04T12:35:56;1.90;99.90
10249;DHT22;5169;50.560;9.714;2023-12-04T12:38:25;2.00;99.90
10249;DHT22;5169;50.560;9.714;2023-12-04T12:40:55;2.20;99.90
10249;DHT22;5169;50.560;9.714;2023-12-04T12:43:21;2.30;99.90
10249;DHT22;5169;50.560;9.714;2023-12-04T12:45:50;2.20;99.90
10249;DHT22;5169;50.560;9.714;2023-12-04T12:48:19;2.40;99.90
10249;DHT22;5169;50.560;9.714;2023-12-04T12:50:46;2.50;99.90
10249;DHT22;5169;50.560;9.714;2023-12-04T12:53:14;2.80;99.90
10249;DHT22;5169;50.560;9.714;2023-12-04T12:55:43;3.10;99.90
10249;DHT22;5169;50.560;9.714;2023-12-04T12:58:14;3.40;99.90
10249;DHT22;5169;50.560;9.714;2023-12-04T13:00:41;3.70;99.90
10249;DHT22;5169;50.560;9.714;2023-12-04T13:03:17;4.00;99.90
10249;DHT22;5169;50.560;9.714;2023-12-04T13:05:43;3.60;99.90
10249;DHT22;5169;50.560;9.714;2023-12-04T13:08:12;3.30;99.90
10249;DHT22;5169;50.560;9.714;2023-12-04T13:10:41;3.30;99.90
10249;DHT22;5169;50.560;9.714;2023-12-04T13:13:13;3.10;99.90
10249;DHT22;5169;50.560;9.714;2023-12-04T13:15:42;3.20;99.90
10249;DHT22;5169;50.560;9.714;2023-12-04T13:18:08;3.20;99.90
10249;DHT22;5169;50.560;9.714;2023-12-04T13:20:34;3.00;99.90
10249;DHT22;5169;50.560;9.714;2023-12-04T13:23:00;2.90;99.90
10249;DHT22;5169;50.560;9.714;2023-12-04T13:25:26;2.80;99.90
10249;DHT22;5169;50.560;9.714;2023-12-04T13:27:54;2.60;99.90
10249;DHT22;5169;50.560;9.714;2023-12-04T13:30:20;2.40;99.90
10249;DHT22;5169;50.560;9.714;2023-12-04T13:32:46;2.20;99.90
10249;DHT22;5169;50.560;9.714;2023-12-04T13:35:11;1.90;99.90
10249;DHT22;5169;50.560;9.714;2023-12-04T13:37:37;1.70;99.90
10249;DHT22;5169;50.560;9.714;2023-12-04T13:40:05;1.60;99.90
10249;DHT22;5169;50.560;9.714;2023-12-04T13:42:38;1.40;99.90
10249;DHT22;5169;50.560;9.714;2023-12-04T13:45:25;1.20;99.90
10249;DHT22;5169;50.560;9.714;2023-12-04T13:47:50;1.30;99.90
10249;DHT22;5169;50.560;9.714;2023-12-04T13:50:17;1.20;99.90
10249;DHT22;5169;50.560;9.714;2023-12-04T13:52:46;1.20;99.90
10249;DHT22;5169;50.560;9.714;2023-12-04T13:55:20;1.10;99.90
10249;DHT22;5169;50.560;9.714;2023-12-04T13:57:54;1.20;99.90
10249;DHT22;5169;50.560;9.714;2023-12-04T14:00:26;1.30;99.90
10249;DHT22;5169;50.560;9.714;2023-12-04T14:02:56;1.20;99.90
10249;DHT22;5169;50.560;9.714;2023-12-04T14:05:29;1.20;99.90
10249;DHT22;5169;50.560;9.714;2023-12-04T14:07:55;1.30;99.90
10249;DHT22;5169;50.560;9.714;2023-12-04T14:10:20;1.20;99.90
10249;DHT22;5169;50.560;9.714;2023-12-04T14:12:51;1.20;99.90
10249;DHT22;5169;50.560;9.714;2023-12-04T14:15:16;1.10;99.90
10249;DHT22;5169;50.560;9.714;2023-12-04T14:17:42;1.20;99.90
10249;DHT22;5169;50.560;9.714;2023-12-04T14:20:10;1.20;99.90
10249;DHT22;5169;50.560;9.714;2023-12-04T14:22:43;1.30;99.90
10249;DHT22;5169;50.560;9.714;2023-12-04T14:25:09;1.20;99.90
10249;DHT22;5169;50.560;9.714;2023-12-04T14:27:38;1.30;99.90
10249;DHT22;5169;50.560;9.714;2023-12-04T14:30:09;1.30;99.90
10249;DHT22;5169;50.560;9.714;2023-12-04T14:32:35;1.30;99.90
10249;DHT22;5169;50.560;9.714;2023-12-04T14:35:02;1.50;99.90
10249;DHT22;5169;50.560;9.714;2023-12-04T14:37:28;1.40;99.90
10249;DHT22;5169;50.560;9.714;2023-12-04T14:39:54;1.40;99.90
10249;DHT22;5169;50.560;9.714;2023-12-04T14:42:19;1.40;99.90
10249;DHT22;5169;50.560;9.714;2023-12-04T14:44:45;1.40;99.90
10249;DHT22;5169;50.560;9.714;2023-12-04T14:47:10;1.50;99.90
10249;DHT22;5169;50.560;9.714;2023-12-04T14:49:37;1.60;99.90
10249;DHT22;5169;50.560;9.714;2023-12-04T14:52:03;1.60;99.90
10249;DHT22;5169;50.560;9.714;2023-12-04T14:54:31;1.60;99.90
10249;DHT22;5169;50.560;9.714;2023-12-04T14:57:18;1.50;99.90
10249;DHT22;5169;50.560;9.714;2023-12-04T15:00:15;1.40;99.90
10249;DHT22;5169;50.560;9.714;2023-12-04T15:02:47;1.40;99.90
10249;DHT22;5169;50.560;9.714;2023-12-04T15:05:24;1.40;99.90
10249;DHT22;5169;50.560;9.714;2023-12-04T15:08:26;1.30;99.90
10249;DHT22;5169;50.560;9.714;2023-12-04T15:11:13;1.10;99.90
10249;DHT22;5169;50.560;9.714;2023-12-04T15:13:58;1.10;99.90
10249;DHT22;5169;50.560;9.714;2023-12-04T15:16:42;1.00;99.90
10249;DHT22;5169;50.560;9.714;2023-12-04T15:19:30;1.00;99.90
10249;DHT22;5169;50.560;9.714;2023-12-04T15:22:09;0.80;99.90
10249;DHT22;5169;50.560;9.714;2023-12-04T15:24:37;0.80;99.90
10249;DHT22;5169;50.560;9.714;2023-12-04T15:27:03;0.80;99.90
10249;DHT22;5169;50.560;9.714;2023-12-04T15:29:32;0.80;99.90
10249;DHT22;5169;50.560;9.714;2023-12-04T15:31:57;0.70;99.90
10249;DHT22;5169;50.560;9.714;2023-12-04T15:34:23;0.70;99.90
10249;DHT22;5169;50.560;9.714;2023-12-04T15:36:49;0.70;99.90
10249;DHT22;5169;50.560;9.714;2023-12-04T15:39:14;0.70;99.90
10249;DHT22;5169;50.560;9.714;2023-12-04T15:41:44;0.70;99.90
10249;DHT22;5169;50.560;9.714;2023-12-04T15:44:09;0.70;99.90
10249;DHT22;5169;50.560;9.714;2023-12-04T15:46:39;0.70;99.90
10249;DHT22;5169;50.560;9.714;2023-12-04T15:49:04;0.70;99.90
10249;DHT22;5169;50.560;9.714;2023-12-04T15:51:30;0.50;99.90
10249;DHT22;5169;50.560;9.714;2023-12-04T15:53:56;0.40;99.90
10249;DHT22;5169;50.560;9.714;2023-12-04T15:56:23;0.60;99.90
10249;DHT22;5169;50.560;9.714;2023-12-04T15:58:49;0.50;99.90